createdAt,value
2019-03-27T00:03:10.576Z,6.6
2019-03-27T00:08:33.916Z,6.6
2019-03-27T00:13:56.594Z,6.6
2019-03-27T00:19:20.798Z,7.1
2019-03-27T00:24:43.424Z,7.3
2019-03-27T00:30:06.088Z,7.5
2019-03-27T00:35:30.162Z,7.4
2019-03-27T00:40:52.804Z,7.9
2019-03-27T00:46:15.437Z,7.9
2019-03-27T00:51:38.215Z,8.1
2019-03-27T00:57:00.881Z,8.2
2019-03-27T01:02:24.529Z,8.6
2019-03-27T01:07:47.219Z,9.7
2019-03-27T01:13:09.950Z,10.1
2019-03-27T01:18:32.690Z,10.1
2019-03-27T01:23:56.154Z,10.9
2019-03-27T01:29:19.543Z,10.8
2019-03-27T01:34:42.266Z,11.8
2019-03-27T01:40:04.979Z,11.8
2019-03-27T01:45:28.422Z,11.6
2019-03-27T01:50:52.071Z,12.9
2019-03-27T01:56:14.833Z,12.4
2019-03-27T02:01:37.479Z,12.8
2019-03-27T02:07:00.199Z,13.5
2019-03-27T02:12:22.851Z,14.1
2019-03-27T02:17:46.123Z,13.6
2019-03-27T02:23:09.382Z,12.3
2019-03-27T02:28:32.029Z,11.2
2019-03-27T02:33:54.845Z,11.7
2019-03-27T02:39:17.613Z,13.3
2019-03-27T02:44:40.339Z,13.5
2019-03-27T02:50:03.236Z,16.700001
2019-03-27T02:55:26.009Z,15.5
2019-03-27T03:00:49.075Z,16.299999
2019-03-27T03:06:11.829Z,16.200001
2019-03-27T03:11:34.519Z,15.3
2019-03-27T03:16:58.152Z,16.5
2019-03-27T03:22:21.964Z,15.5
2019-03-27T03:27:44.736Z,14.4
2019-03-27T03:33:07.434Z,13.7
2019-03-27T03:38:31.627Z,14.3
2019-03-27T03:43:55.275Z,17.799999
2019-03-27T03:49:18.613Z,15.7
2019-03-27T03:54:41.313Z,18.299999
2019-03-27T04:00:04.008Z,13.7
2019-03-27T04:05:27.599Z,13.7
2019-03-27T04:10:50.427Z,13.4
2019-03-27T04:16:14.274Z,11.3
2019-03-27T04:21:36.952Z,11.9
2019-03-27T04:26:59.702Z,12.1
2019-03-27T04:32:22.766Z,12.5
2019-03-27T04:37:46.751Z,13.8
2019-03-27T04:43:09.805Z,13.6
2019-03-27T04:48:32.511Z,13.9
2019-03-27T04:53:55.208Z,14.5
2019-03-27T04:59:18.242Z,13.1
2019-03-27T05:04:41.227Z,13
2019-03-27T05:10:03.918Z,14.2
2019-03-27T05:15:26.933Z,15.8
2019-03-27T05:20:49.665Z,14.3
2019-03-27T05:26:12.427Z,13.6
2019-03-27T05:31:35.091Z,13.5
2019-03-27T05:36:57.860Z,12.4
2019-03-27T05:42:20.730Z,12.8
2019-03-27T05:47:43.462Z,11.4
2019-03-27T05:53:06.220Z,10.8
2019-03-27T05:58:28.898Z,12.5
2019-03-27T06:03:51.628Z,12.8
2019-03-27T06:09:14.421Z,11.8
2019-03-27T06:14:37.146Z,12.4
2019-03-27T06:20:00.831Z,11.5
2019-03-27T06:25:23.571Z,11.1
2019-03-27T06:30:46.234Z,10.7
2019-03-27T06:36:08.906Z,11.2
2019-03-27T06:41:31.575Z,11
2019-03-27T06:46:54.314Z,11.5
2019-03-27T06:52:17.027Z,10.5
2019-03-27T06:57:39.834Z,11.7
2019-03-27T07:03:02.533Z,10.5
2019-03-27T07:08:25.214Z,8.8
2019-03-27T07:13:47.984Z,9.1
2019-03-27T07:19:10.748Z,9.4
2019-03-27T07:24:33.426Z,9.5
2019-03-27T07:29:56.123Z,10.1
2019-03-27T07:35:19.037Z,9.7
2019-03-27T07:40:41.809Z,10.3
2019-03-27T07:46:04.452Z,10.7
2019-03-27T07:51:27.139Z,10.3
2019-03-27T07:56:49.879Z,9.4
2019-03-27T08:02:12.524Z,9.6
2019-03-27T08:07:35.178Z,8.7
2019-03-27T08:12:57.958Z,8.7
2019-03-27T08:18:20.618Z,9.3
2019-03-27T08:23:43.222Z,8
2019-03-27T08:29:05.912Z,7.7
2019-03-27T08:34:28.582Z,7.5
2019-03-27T08:39:51.299Z,7.3
2019-03-27T08:45:13.948Z,7
2019-03-27T08:50:36.613Z,6.2
2019-03-27T08:55:59.272Z,6.6
2019-03-27T09:01:21.966Z,7.2
2019-03-27T09:06:44.739Z,6.2
2019-03-27T09:12:07.451Z,7
2019-03-27T09:17:30.309Z,7.1
2019-03-27T09:22:54.284Z,6.1
2019-03-27T09:28:16.968Z,7.2
2019-03-27T09:33:39.630Z,6.7
2019-03-27T09:39:02.290Z,6.8
2019-03-27T09:44:25.010Z,6.7
2019-03-27T09:49:49.658Z,6.7
2019-03-27T09:55:11.568Z,6.1
2019-03-27T10:00:34.224Z,5.3
2019-03-27T10:05:56.910Z,6.1
2019-03-27T10:11:19.587Z,5.5
2019-03-27T10:16:42.280Z,6
2019-03-27T10:22:04.956Z,5.6
2019-03-27T10:27:27.652Z,5.5
2019-03-27T10:32:50.325Z,4.8
2019-03-27T10:38:13.044Z,4.1
2019-03-27T10:43:35.799Z,4.6
2019-03-27T10:48:58.529Z,4.3
2019-03-27T10:54:21.198Z,4
2019-03-27T10:59:43.882Z,4.4
2019-03-27T11:05:06.548Z,4.2
2019-03-27T11:10:29.178Z,3.5
2019-03-27T11:15:51.975Z,3.4
2019-03-27T11:21:14.747Z,3.6
2019-03-27T11:26:37.384Z,3
2019-03-27T11:32:00.286Z,3.4
2019-03-27T11:37:22.992Z,3.5
2019-03-27T11:42:45.702Z,3
2019-03-27T11:48:08.423Z,2.7
2019-03-27T11:53:31.049Z,2.9
2019-03-27T11:58:53.836Z,3
2019-03-27T12:04:16.581Z,2.7
2019-03-27T12:09:39.366Z,2.7
2019-03-27T12:15:02.044Z,3
2019-03-27T12:20:28.542Z,3.2
2019-03-27T12:25:51.192Z,3.5
2019-03-27T12:31:14.862Z,3.6
2019-03-27T12:36:37.512Z,3.8
2019-03-27T12:42:00.267Z,4.5
2019-03-27T12:47:23.113Z,4.6
2019-03-27T12:52:45.797Z,4.9
2019-03-27T12:58:11.583Z,4.6
2019-03-27T13:03:32.088Z,5.3
2019-03-27T13:08:54.759Z,4.7
2019-03-27T13:14:17.517Z,4
2019-03-27T13:19:40.270Z,4.1
2019-03-27T13:25:02.963Z,3.9
2019-03-27T13:30:25.713Z,3.7
2019-03-27T13:35:48.382Z,3.9
2019-03-27T13:41:11.094Z,4.8
2019-03-27T13:46:33.753Z,3.6
2019-03-27T13:51:56.441Z,4.3
2019-03-27T13:57:19.150Z,4.2
2019-03-27T14:02:41.816Z,4.6
2019-03-27T14:08:05.378Z,4
2019-03-27T14:13:28.144Z,3.6
2019-03-27T14:18:50.911Z,3.4
2019-03-27T14:24:13.631Z,3
2019-03-27T14:29:36.341Z,3.8
2019-03-27T14:34:59.026Z,3.5
2019-03-27T14:40:21.757Z,3.3
2019-03-27T14:45:44.411Z,3.4
2019-03-27T14:51:07.612Z,3.2
2019-03-27T14:56:30.259Z,3
2019-03-27T15:01:53.054Z,2.7
2019-03-27T15:07:16.745Z,2.8
2019-03-27T15:12:39.365Z,3.1
2019-03-27T15:18:02.190Z,3.2
2019-03-27T15:23:24.968Z,3.5
2019-03-27T15:28:50.579Z,3.5
2019-03-27T15:34:11.315Z,2.9
2019-03-27T15:39:33.975Z,3.4
2019-03-27T15:44:56.887Z,3.3
2019-03-27T15:50:19.605Z,4.1
2019-03-27T15:55:43.258Z,3.9
2019-03-27T16:01:06.240Z,3.8
2019-03-27T16:06:28.911Z,3.4
2019-03-27T16:11:52.237Z,3.6
2019-03-27T16:17:14.920Z,3.5
2019-03-27T16:22:49.754Z,3.1
2019-03-27T16:28:02.329Z,3.4
2019-03-27T16:33:24.986Z,3.7
2019-03-27T16:38:47.664Z,3.4
2019-03-27T16:44:10.424Z,3.4
2019-03-27T16:49:33.142Z,3.3
2019-03-27T16:54:55.811Z,3.6
2019-03-27T17:00:18.480Z,3.3
2019-03-27T17:05:53.214Z,3.3
2019-03-27T17:11:04.838Z,3.2
2019-03-27T17:16:27.502Z,3.6
2019-03-27T17:21:50.134Z,4
2019-03-27T17:27:13.001Z,4
2019-03-27T17:32:35.738Z,3.4
2019-03-27T17:37:58.457Z,3.8
2019-03-27T17:43:21.195Z,3.7
2019-03-27T17:48:43.825Z,4.3
2019-03-27T17:54:19.574Z,4.2
2019-03-27T17:59:30.370Z,4.6
2019-03-27T18:04:53.157Z,4.7
2019-03-27T18:10:15.918Z,4.4
2019-03-27T18:15:38.729Z,5.5
2019-03-27T18:21:01.390Z,4.7
2019-03-27T18:26:24.096Z,4.8
2019-03-27T18:31:46.876Z,4.9
2019-03-27T18:37:10.564Z,5
2019-03-27T18:42:34.056Z,5.6
2019-03-27T18:47:56.922Z,5.4
2019-03-27T18:53:19.578Z,6.7
2019-03-27T18:58:42.409Z,6.2
2019-03-27T19:04:05.193Z,6.5
2019-03-27T19:09:28.264Z,6.5
2019-03-27T19:14:50.940Z,6.3
2019-03-27T19:20:13.894Z,6.9
2019-03-27T19:25:36.627Z,7.1
2019-03-27T19:30:59.381Z,7.1
2019-03-27T19:36:22.037Z,7.2
2019-03-27T19:41:44.824Z,6.5
2019-03-27T19:47:08.494Z,7.1
2019-03-27T19:52:31.616Z,7.8
2019-03-27T19:57:54.545Z,7
2019-03-27T20:03:17.390Z,7.5
2019-03-27T20:08:40.842Z,6.9
2019-03-27T20:14:03.681Z,7.9
2019-03-27T20:19:26.410Z,8
2019-03-27T20:24:50.744Z,8.2
2019-03-27T20:30:13.538Z,8
2019-03-27T20:35:36.281Z,8
2019-03-27T20:40:58.975Z,7.9
2019-03-27T20:46:25.341Z,7.8
2019-03-27T20:51:45.406Z,7.4
2019-03-27T20:57:08.295Z,7.8
2019-03-27T21:02:31.006Z,6.5
2019-03-27T21:07:53.797Z,6.6
2019-03-27T21:13:16.864Z,6.9
2019-03-27T21:18:39.560Z,6.6
2019-03-27T21:24:03.405Z,7.1
2019-03-27T21:29:26.539Z,6.6
2019-03-27T21:34:50.458Z,7.1
2019-03-27T21:40:13.253Z,7.2
2019-03-27T21:45:35.943Z,6.9
2019-03-27T21:50:58.704Z,7
2019-03-27T21:56:22.262Z,6.8
2019-03-27T22:01:45.017Z,6.5
2019-03-27T22:07:07.802Z,7.3
2019-03-27T22:12:31.440Z,6.9
2019-03-27T22:17:54.879Z,7
2019-03-27T22:23:17.597Z,7.1
2019-03-27T22:28:40.298Z,6.8
2019-03-27T22:34:03.119Z,6.7
2019-03-27T22:39:25.852Z,7.3
2019-03-27T22:44:48.556Z,6.4
2019-03-27T22:50:11.321Z,6.5
2019-03-27T22:55:34.040Z,6.7
2019-03-27T23:00:56.806Z,6.8
2019-03-27T23:06:19.557Z,7.7
2019-03-27T23:11:42.288Z,6.4
2019-03-27T23:17:05.219Z,6.4
2019-03-27T23:22:27.844Z,7
2019-03-27T23:27:50.696Z,7.4
2019-03-27T23:33:13.406Z,7.2
2019-03-27T23:38:36.326Z,6.7
2019-03-27T23:43:58.884Z,7.2
2019-03-27T23:49:21.752Z,7.2
2019-03-27T23:54:44.491Z,7.9
